sensor_id;sensor_type;location;lat;lon;timestamp;P1;durP1;ratioP1;P2;durP2;ratioP2
21299;SDS011;10809;49.476;11.016;2023-08-31T00:00:05;2.25;;;2.15;;
21299;SDS011;10809;49.476;11.016;2023-08-31T00:02:39;2.97;;;2.20;;
21299;SDS011;10809;49.476;11.016;2023-08-31T00:05:13;2.63;;;2.53;;
21299;SDS011;10809;49.476;11.016;2023-08-31T00:07:47;2.25;;;2.25;;
21299;SDS011;10809;49.476;11.016;2023-08-31T00:10:17;2.28;;;2.17;;
21299;SDS011;10809;49.476;11.016;2023-08-31T00:12:47;2.17;;;2.08;;
21299;SDS011;10809;49.476;11.016;2023-08-31T00:15:19;1.87;;;1.87;;
21299;SDS011;10809;49.476;11.016;2023-08-31T00:17:49;1.90;;;1.90;;
21299;SDS011;10809;49.476;11.016;2023-08-31T00:20:20;1.95;;;1.88;;
21299;SDS011;10809;49.476;11.016;2023-08-31T00:22:51;2.53;;;2.33;;
21299;SDS011;10809;49.476;11.016;2023-08-31T00:25:22;2.05;;;2.05;;
21299;SDS011;10809;49.476;11.016;2023-08-31T00:27:53;2.55;;;2.45;;
21299;SDS011;10809;49.476;11.016;2023-08-31T00:30:24;2.50;;;2.30;;
21299;SDS011;10809;49.476;11.016;2023-08-31T00:32:59;2.10;;;2.10;;
21299;SDS011;10809;49.476;11.016;2023-08-31T00:35:33;2.30;;;2.20;;
21299;SDS011;10809;49.476;11.016;2023-08-31T00:38:04;2.73;;;2.53;;
21299;SDS011;10809;49.476;11.016;2023-08-31T00:40:38;3.27;;;2.77;;
21299;SDS011;10809;49.476;11.016;2023-08-31T00:43:12;2.97;;;2.70;;
21299;SDS011;10809;49.476;11.016;2023-08-31T00:45:46;3.40;;;3.10;;
21299;SDS011;10809;49.476;11.016;2023-08-31T00:48:19;2.83;;;2.70;;
21299;SDS011;10809;49.476;11.016;2023-08-31T00:50:50;2.70;;;2.50;;
21299;SDS011;10809;49.476;11.016;2023-08-31T00:53:21;2.23;;;2.13;;
21299;SDS011;10809;49.476;11.016;2023-08-31T00:55:53;2.57;;;2.47;;
21299;SDS011;10809;49.476;11.016;2023-08-31T00:58:26;2.30;;;2.20;;
21299;SDS011;10809;49.476;11.016;2023-08-31T01:00:58;2.20;;;2.10;;
21299;SDS011;10809;49.476;11.016;2023-08-31T01:03:39;1.83;;;1.73;;
21299;SDS011;10809;49.476;11.016;2023-08-31T01:12:18;1.90;;;1.90;;
21299;SDS011;10809;49.476;11.016;2023-08-31T01:15:04;1.80;;;1.80;;
21299;SDS011;10809;49.476;11.016;2023-08-31T01:17:48;2.10;;;2.00;;
21299;SDS011;10809;49.476;11.016;2023-08-31T01:20:37;1.93;;;1.93;;
21299;SDS011;10809;49.476;11.016;2023-08-31T01:23:18;1.80;;;1.70;;
21299;SDS011;10809;49.476;11.016;2023-08-31T01:25:50;1.80;;;1.77;;
21299;SDS011;10809;49.476;11.016;2023-08-31T01:28:21;1.60;;;1.60;;
21299;SDS011;10809;49.476;11.016;2023-08-31T01:30:52;2.03;;;1.97;;
21299;SDS011;10809;49.476;11.016;2023-08-31T01:33:22;3.70;;;2.03;;
21299;SDS011;10809;49.476;11.016;2023-08-31T01:35:53;2.17;;;2.07;;
21299;SDS011;10809;49.476;11.016;2023-08-31T01:38:28;1.90;;;1.90;;
21299;SDS011;10809;49.476;11.016;2023-08-31T01:41:14;1.83;;;1.83;;
21299;SDS011;10809;49.476;11.016;2023-08-31T01:43:48;2.10;;;2.00;;
21299;SDS011;10809;49.476;11.016;2023-08-31T01:46:20;2.07;;;2.07;;
21299;SDS011;10809;49.476;11.016;2023-08-31T01:48:57;1.70;;;1.70;;
21299;SDS011;10809;49.476;11.016;2023-08-31T01:51:27;2.20;;;2.10;;
21299;SDS011;10809;49.476;11.016;2023-08-31T01:53:58;1.80;;;1.80;;
21299;SDS011;10809;49.476;11.016;2023-08-31T01:56:29;2.20;;;2.10;;
21299;SDS011;10809;49.476;11.016;2023-08-31T01:59:02;1.73;;;1.73;;
21299;SDS011;10809;49.476;11.016;2023-08-31T02:01:33;2.07;;;1.97;;
21299;SDS011;10809;49.476;11.016;2023-08-31T02:04:04;1.67;;;1.67;;
21299;SDS011;10809;49.476;11.016;2023-08-31T02:06:35;1.97;;;1.87;;
21299;SDS011;10809;49.476;11.016;2023-08-31T02:09:06;2.20;;;2.10;;
21299;SDS011;10809;49.476;11.016;2023-08-31T02:11:37;2.13;;;2.03;;
21299;SDS011;10809;49.476;11.016;2023-08-31T02:14:08;3.63;;;2.20;;
21299;SDS011;10809;49.476;11.016;2023-08-31T02:16:38;1.90;;;1.83;;
21299;SDS011;10809;49.476;11.016;2023-08-31T02:19:09;2.10;;;2.00;;
21299;SDS011;10809;49.476;11.016;2023-08-31T02:21:39;1.97;;;1.90;;
21299;SDS011;10809;49.476;11.016;2023-08-31T02:24:10;1.93;;;1.83;;
21299;SDS011;10809;49.476;11.016;2023-08-31T02:26:43;1.90;;;1.90;;
21299;SDS011;10809;49.476;11.016;2023-08-31T02:29:14;2.27;;;2.17;;
21299;SDS011;10809;49.476;11.016;2023-08-31T02:31:47;1.87;;;1.87;;
21299;SDS011;10809;49.476;11.016;2023-08-31T02:34:18;1.70;;;1.60;;
21299;SDS011;10809;49.476;11.016;2023-08-31T02:36:48;2.10;;;2.00;;
21299;SDS011;10809;49.476;11.016;2023-08-31T02:39:19;1.97;;;1.87;;
21299;SDS011;10809;49.476;11.016;2023-08-31T02:41:51;2.27;;;1.67;;
21299;SDS011;10809;49.476;11.016;2023-08-31T02:44:21;2.07;;;1.97;;
21299;SDS011;10809;49.476;11.016;2023-08-31T02:46:52;2.07;;;1.97;;
21299;SDS011;10809;49.476;11.016;2023-08-31T02:49:25;2.37;;;1.63;;
21299;SDS011;10809;49.476;11.016;2023-08-31T02:51:56;1.77;;;1.67;;
21299;SDS011;10809;49.476;11.016;2023-08-31T02:54:26;2.00;;;2.00;;
21299;SDS011;10809;49.476;11.016;2023-08-31T02:56:57;2.27;;;2.10;;
21299;SDS011;10809;49.476;11.016;2023-08-31T02:59:27;2.47;;;1.90;;
21299;SDS011;10809;49.476;11.016;2023-08-31T03:01:59;1.80;;;1.70;;
21299;SDS011;10809;49.476;11.016;2023-08-31T03:04:29;2.03;;;2.00;;
21299;SDS011;10809;49.476;11.016;2023-08-31T03:07:00;1.90;;;1.80;;
21299;SDS011;10809;49.476;11.016;2023-08-31T03:09:33;2.00;;;2.00;;
21299;SDS011;10809;49.476;11.016;2023-08-31T03:12:04;1.70;;;1.70;;
21299;SDS011;10809;49.476;11.016;2023-08-31T03:14:35;1.67;;;1.60;;
21299;SDS011;10809;49.476;11.016;2023-08-31T03:17:06;1.70;;;1.60;;
21299;SDS011;10809;49.476;11.016;2023-08-31T03:19:37;1.90;;;1.80;;
21299;SDS011;10809;49.476;11.016;2023-08-31T03:22:08;1.73;;;1.73;;
21299;SDS011;10809;49.476;11.016;2023-08-31T03:24:39;1.83;;;1.83;;
21299;SDS011;10809;49.476;11.016;2023-08-31T03:27:10;1.87;;;1.77;;
21299;SDS011;10809;49.476;11.016;2023-08-31T03:29:40;1.77;;;1.67;;
21299;SDS011;10809;49.476;11.016;2023-08-31T03:32:11;1.60;;;1.60;;
21299;SDS011;10809;49.476;11.016;2023-08-31T03:34:41;1.53;;;1.53;;
21299;SDS011;10809;49.476;11.016;2023-08-31T03:37:13;1.93;;;1.83;;
21299;SDS011;10809;49.476;11.016;2023-08-31T03:39:47;1.80;;;1.70;;
21299;SDS011;10809;49.476;11.016;2023-08-31T03:42:21;1.53;;;1.53;;
21299;SDS011;10809;49.476;11.016;2023-08-31T03:44:51;1.87;;;1.77;;
21299;SDS011;10809;49.476;11.016;2023-08-31T03:47:22;3.70;;;1.90;;
21299;SDS011;10809;49.476;11.016;2023-08-31T03:49:53;1.97;;;1.87;;
21299;SDS011;10809;49.476;11.016;2023-08-31T03:52:27;1.53;;;1.43;;
21299;SDS011;10809;49.476;11.016;2023-08-31T03:54:58;2.03;;;1.93;;
21299;SDS011;10809;49.476;11.016;2023-08-31T03:57:28;1.93;;;1.83;;
21299;SDS011;10809;49.476;11.016;2023-08-31T04:00:05;2.00;;;1.90;;
21299;SDS011;10809;49.476;11.016;2023-08-31T04:02:47;1.80;;;1.80;;
21299;SDS011;10809;49.476;11.016;2023-08-31T04:05:22;1.90;;;1.80;;
21299;SDS011;10809;49.476;11.016;2023-08-31T04:07:56;1.70;;;1.70;;
21299;SDS011;10809;49.476;11.016;2023-08-31T04:10:32;2.50;;;2.00;;
21299;SDS011;10809;49.476;11.016;2023-08-31T04:13:03;1.90;;;1.80;;
21299;SDS011;10809;49.476;11.016;2023-08-31T04:15:34;1.60;;;1.60;;
21299;SDS011;10809;49.476;11.016;2023-08-31T04:18:04;1.80;;;1.70;;
21299;SDS011;10809;49.476;11.016;2023-08-31T04:20:35;2.30;;;2.10;;
21299;SDS011;10809;49.476;11.016;2023-08-31T04:23:05;1.83;;;1.73;;
21299;SDS011;10809;49.476;11.016;2023-08-31T04:25:36;1.97;;;1.97;;
21299;SDS011;10809;49.476;11.016;2023-08-31T04:28:06;1.90;;;1.80;;
21299;SDS011;10809;49.476;11.016;2023-08-31T04:30:37;2.10;;;2.00;;
21299;SDS011;10809;49.476;11.016;2023-08-31T04:33:10;2.17;;;2.07;;
21299;SDS011;10809;49.476;11.016;2023-08-31T04:35:41;2.23;;;2.13;;
21299;SDS011;10809;49.476;11.016;2023-08-31T04:38:11;1.93;;;1.83;;
21299;SDS011;10809;49.476;11.016;2023-08-31T04:40:42;1.97;;;1.87;;
21299;SDS011;10809;49.476;11.016;2023-08-31T04:43:13;2.33;;;2.23;;
21299;SDS011;10809;49.476;11.016;2023-08-31T04:45:44;2.23;;;2.13;;
21299;SDS011;10809;49.476;11.016;2023-08-31T04:48:14;2.10;;;2.00;;
21299;SDS011;10809;49.476;11.016;2023-08-31T04:50:49;2.10;;;2.03;;
21299;SDS011;10809;49.476;11.016;2023-08-31T04:53:19;2.30;;;2.20;;
21299;SDS011;10809;49.476;11.016;2023-08-31T04:55:50;2.27;;;2.17;;
21299;SDS011;10809;49.476;11.016;2023-08-31T04:58:21;1.80;;;1.80;;
21299;SDS011;10809;49.476;11.016;2023-08-31T05:00:51;2.30;;;2.03;;
21299;SDS011;10809;49.476;11.016;2023-08-31T05:03:22;2.40;;;2.23;;
21299;SDS011;10809;49.476;11.016;2023-08-31T05:05:52;2.40;;;2.20;;
21299;SDS011;10809;49.476;11.016;2023-08-31T05:08:23;3.17;;;2.53;;
21299;SDS011;10809;49.476;11.016;2023-08-31T05:10:53;2.17;;;2.07;;
21299;SDS011;10809;49.476;11.016;2023-08-31T05:13:27;2.40;;;2.30;;
21299;SDS011;10809;49.476;11.016;2023-08-31T05:15:57;2.60;;;2.40;;
21299;SDS011;10809;49.476;11.016;2023-08-31T05:18:34;2.20;;;2.10;;
21299;SDS011;10809;49.476;11.016;2023-08-31T05:21:04;1.93;;;1.93;;
21299;SDS011;10809;49.476;11.016;2023-08-31T05:23:35;2.13;;;2.03;;
21299;SDS011;10809;49.476;11.016;2023-08-31T05:26:05;2.47;;;2.37;;
21299;SDS011;10809;49.476;11.016;2023-08-31T05:28:36;2.30;;;2.20;;
21299;SDS011;10809;49.476;11.016;2023-08-31T05:31:06;2.47;;;2.37;;
21299;SDS011;10809;49.476;11.016;2023-08-31T05:33:37;3.10;;;2.90;;
21299;SDS011;10809;49.476;11.016;2023-08-31T05:36:13;2.90;;;2.70;;
21299;SDS011;10809;49.476;11.016;2023-08-31T05:38:44;2.40;;;2.30;;
21299;SDS011;10809;49.476;11.016;2023-08-31T05:41:14;2.93;;;2.73;;
21299;SDS011;10809;49.476;11.016;2023-08-31T05:43:45;2.80;;;2.60;;
21299;SDS011;10809;49.476;11.016;2023-08-31T05:46:17;4.17;;;2.50;;
21299;SDS011;10809;49.476;11.016;2023-08-31T05:48:47;2.80;;;2.60;;
21299;SDS011;10809;49.476;11.016;2023-08-31T05:51:18;2.77;;;2.57;;
21299;SDS011;10809;49.476;11.016;2023-08-31T05:53:48;2.70;;;2.50;;
21299;SDS011;10809;49.476;11.016;2023-08-31T05:56:19;3.00;;;2.80;;
21299;SDS011;10809;49.476;11.016;2023-08-31T05:58:49;2.63;;;2.43;;
21299;SDS011;10809;49.476;11.016;2023-08-31T06:01:20;3.47;;;2.70;;
21299;SDS011;10809;49.476;11.016;2023-08-31T06:03:52;2.67;;;2.47;;
21299;SDS011;10809;49.476;11.016;2023-08-31T06:06:22;2.93;;;2.70;;
21299;SDS011;10809;49.476;11.016;2023-08-31T06:08:53;2.23;;;2.13;;
21299;SDS011;10809;49.476;11.016;2023-08-31T06:11:24;2.57;;;2.37;;
21299;SDS011;10809;49.476;11.016;2023-08-31T06:13:54;3.07;;;2.73;;
21299;SDS011;10809;49.476;11.016;2023-08-31T06:16:25;2.93;;;2.60;;
21299;SDS011;10809;49.476;11.016;2023-08-31T06:18:55;2.83;;;2.60;;
21299;SDS011;10809;49.476;11.016;2023-08-31T06:21:26;3.00;;;2.87;;
21299;SDS011;10809;49.476;11.016;2023-08-31T06:23:59;2.50;;;2.40;;
21299;SDS011;10809;49.476;11.016;2023-08-31T06:26:30;2.50;;;2.40;;
21299;SDS011;10809;49.476;11.016;2023-08-31T06:29:00;2.87;;;2.67;;
21299;SDS011;10809;49.476;11.016;2023-08-31T06:31:30;3.30;;;3.10;;
21299;SDS011;10809;49.476;11.016;2023-08-31T06:34:01;3.00;;;2.80;;
21299;SDS011;10809;49.476;11.016;2023-08-31T06:36:32;3.87;;;2.93;;
21299;SDS011;10809;49.476;11.016;2023-08-31T06:39:03;3.70;;;3.00;;
21299;SDS011;10809;49.476;11.016;2023-08-31T06:41:34;3.50;;;3.20;;
21299;SDS011;10809;49.476;11.016;2023-08-31T06:44:05;2.97;;;2.77;;
21299;SDS011;10809;49.476;11.016;2023-08-31T06:46:36;3.03;;;2.93;;
21299;SDS011;10809;49.476;11.016;2023-08-31T06:49:08;3.10;;;2.90;;
21299;SDS011;10809;49.476;11.016;2023-08-31T06:51:39;3.20;;;3.00;;
21299;SDS011;10809;49.476;11.016;2023-08-31T06:54:10;3.60;;;3.30;;
21299;SDS011;10809;49.476;11.016;2023-08-31T06:56:43;3.40;;;3.20;;
21299;SDS011;10809;49.476;11.016;2023-08-31T06:59:14;3.10;;;2.73;;
21299;SDS011;10809;49.476;11.016;2023-08-31T07:01:44;3.03;;;2.80;;
21299;SDS011;10809;49.476;11.016;2023-08-31T07:04:15;2.83;;;2.73;;
21299;SDS011;10809;49.476;11.016;2023-08-31T07:06:46;3.00;;;2.87;;
21299;SDS011;10809;49.476;11.016;2023-08-31T07:09:16;3.83;;;3.23;;
21299;SDS011;10809;49.476;11.016;2023-08-31T07:11:47;3.37;;;3.17;;
21299;SDS011;10809;49.476;11.016;2023-08-31T07:14:18;3.93;;;3.10;;
21299;SDS011;10809;49.476;11.016;2023-08-31T07:16:48;3.15;;;3.03;;
21299;SDS011;10809;49.476;11.016;2023-08-31T07:19:19;3.25;;;3.05;;
21299;SDS011;10809;49.476;11.016;2023-08-31T07:21:49;2.88;;;2.67;;
21299;SDS011;10809;49.476;11.016;2023-08-31T07:24:20;3.28;;;3.03;;
21299;SDS011;10809;49.476;11.016;2023-08-31T07:26:51;3.45;;;3.05;;
21299;SDS011;10809;49.476;11.016;2023-08-31T07:29:21;3.28;;;3.05;;
21299;SDS011;10809;49.476;11.016;2023-08-31T07:31:52;2.88;;;2.78;;
21299;SDS011;10809;49.476;11.016;2023-08-31T07:34:22;5.30;;;3.53;;
21299;SDS011;10809;49.476;11.016;2023-08-31T07:36:59;3.13;;;3.03;;
21299;SDS011;10809;49.476;11.016;2023-08-31T07:39:32;4.22;;;3.22;;
21299;SDS011;10809;49.476;11.016;2023-08-31T07:42:04;3.38;;;3.25;;
21299;SDS011;10809;49.476;11.016;2023-08-31T07:44:35;3.55;;;3.35;;
21299;SDS011;10809;49.476;11.016;2023-08-31T07:47:05;3.78;;;3.58;;
21299;SDS011;10809;49.476;11.016;2023-08-31T07:49:36;4.18;;;3.88;;
21299;SDS011;10809;49.476;11.016;2023-08-31T07:52:06;4.00;;;3.80;;
21299;SDS011;10809;49.476;11.016;2023-08-31T07:54:37;3.90;;;3.70;;
21299;SDS011;10809;49.476;11.016;2023-08-31T07:57:07;4.10;;;3.80;;
21299;SDS011;10809;49.476;11.016;2023-08-31T07:59:38;4.53;;;4.32;;
21299;SDS011;10809;49.476;11.016;2023-08-31T08:02:10;4.38;;;4.18;;
21299;SDS011;10809;49.476;11.016;2023-08-31T08:04:40;4.25;;;4.00;;
21299;SDS011;10809;49.476;11.016;2023-08-31T08:07:11;3.80;;;3.60;;
21299;SDS011;10809;49.476;11.016;2023-08-31T08:09:41;3.38;;;3.22;;
21299;SDS011;10809;49.476;11.016;2023-08-31T08:12:12;3.95;;;3.60;;
21299;SDS011;10809;49.476;11.016;2023-08-31T08:14:42;3.50;;;3.40;;
21299;SDS011;10809;49.476;11.016;2023-08-31T08:17:13;3.13;;;3.03;;
21299;SDS011;10809;49.476;11.016;2023-08-31T08:19:43;3.65;;;3.45;;
21299;SDS011;10809;49.476;11.016;2023-08-31T08:22:14;3.85;;;3.63;;
21299;SDS011;10809;49.476;11.016;2023-08-31T08:24:44;3.45;;;3.30;;
21299;SDS011;10809;49.476;11.016;2023-08-31T08:27:15;3.20;;;3.10;;
21299;SDS011;10809;49.476;11.016;2023-08-31T08:29:46;3.30;;;3.10;;
21299;SDS011;10809;49.476;11.016;2023-08-31T08:32:17;3.22;;;3.13;;
21299;SDS011;10809;49.476;11.016;2023-08-31T08:34:47;3.83;;;3.53;;
21299;SDS011;10809;49.476;11.016;2023-08-31T08:37:21;3.47;;;3.22;;
21299;SDS011;10809;49.476;11.016;2023-08-31T08:39:51;3.13;;;3.03;;
21299;SDS011;10809;49.476;11.016;2023-08-31T08:42:29;3.55;;;3.35;;
21299;SDS011;10809;49.476;11.016;2023-08-31T08:45:05;3.53;;;3.33;;
21299;SDS011;10809;49.476;11.016;2023-08-31T08:47:36;2.85;;;2.75;;
21299;SDS011;10809;49.476;11.016;2023-08-31T08:50:06;2.45;;;2.45;;
21299;SDS011;10809;49.476;11.016;2023-08-31T08:52:38;3.17;;;3.00;;
21299;SDS011;10809;49.476;11.016;2023-08-31T08:55:12;3.28;;;3.17;;
21299;SDS011;10809;49.476;11.016;2023-08-31T08:57:44;3.08;;;2.92;;
21299;SDS011;10809;49.476;11.016;2023-08-31T09:00:15;2.72;;;2.63;;
21299;SDS011;10809;49.476;11.016;2023-08-31T09:02:46;3.17;;;2.97;;
21299;SDS011;10809;49.476;11.016;2023-08-31T09:05:16;2.92;;;2.83;;
21299;SDS011;10809;49.476;11.016;2023-08-31T09:08:00;3.20;;;2.80;;
21299;SDS011;10809;49.476;11.016;2023-08-31T09:10:42;2.72;;;2.63;;
21299;SDS011;10809;49.476;11.016;2023-08-31T09:13:14;3.05;;;2.85;;
21299;SDS011;10809;49.476;11.016;2023-08-31T09:15:48;2.35;;;2.15;;
21299;SDS011;10809;49.476;11.016;2023-08-31T09:20:57;2.70;;;2.60;;
21299;SDS011;10809;49.476;11.016;2023-08-31T09:23:27;2.95;;;2.85;;
21299;SDS011;10809;49.476;11.016;2023-08-31T09:26:02;2.40;;;2.30;;
21299;SDS011;10809;49.476;11.016;2023-08-31T09:28:40;2.63;;;2.47;;
21299;SDS011;10809;49.476;11.016;2023-08-31T09:31:10;3.00;;;2.88;;
21299;SDS011;10809;49.476;11.016;2023-08-31T09:33:49;2.97;;;2.88;;
21299;SDS011;10809;49.476;11.016;2023-08-31T09:36:22;4.47;;;3.97;;
21299;SDS011;10809;49.476;11.016;2023-08-31T09:38:56;3.17;;;3.08;;
21299;SDS011;10809;49.476;11.016;2023-08-31T09:41:27;3.38;;;3.28;;
21299;SDS011;10809;49.476;11.016;2023-08-31T09:44:14;3.55;;;3.35;;
21299;SDS011;10809;49.476;11.016;2023-08-31T09:46:46;3.00;;;2.90;;
21299;SDS011;10809;49.476;11.016;2023-08-31T09:49:17;3.10;;;3.00;;
21299;SDS011;10809;49.476;11.016;2023-08-31T09:51:49;3.42;;;3.22;;
21299;SDS011;10809;49.476;11.016;2023-08-31T09:54:21;3.35;;;3.25;;
21299;SDS011;10809;49.476;11.016;2023-08-31T09:56:57;3.58;;;3.38;;
21299;SDS011;10809;49.476;11.016;2023-08-31T09:59:30;3.22;;;3.03;;
21299;SDS011;10809;49.476;11.016;2023-08-31T10:02:01;2.83;;;2.72;;
21299;SDS011;10809;49.476;11.016;2023-08-31T10:04:34;2.75;;;2.65;;
21299;SDS011;10809;49.476;11.016;2023-08-31T10:07:08;2.97;;;2.88;;
21299;SDS011;10809;49.476;11.016;2023-08-31T10:09:40;3.53;;;3.33;;
21299;SDS011;10809;49.476;11.016;2023-08-31T10:12:12;3.22;;;3.05;;
21299;SDS011;10809;49.476;11.016;2023-08-31T10:14:44;2.97;;;2.85;;
21299;SDS011;10809;49.476;11.016;2023-08-31T10:17:16;3.13;;;3.03;;
21299;SDS011;10809;49.476;11.016;2023-08-31T10:19:47;3.00;;;2.90;;
21299;SDS011;10809;49.476;11.016;2023-08-31T10:22:18;3.08;;;2.97;;
21299;SDS011;10809;49.476;11.016;2023-08-31T10:25:22;2.78;;;2.67;;
21299;SDS011;10809;49.476;11.016;2023-08-31T10:27:46;2.60;;;2.50;;
21299;SDS011;10809;49.476;11.016;2023-08-31T10:30:29;3.00;;;2.90;;
21299;SDS011;10809;49.476;11.016;2023-08-31T10:35:50;2.83;;;2.63;;
21299;SDS011;10809;49.476;11.016;2023-08-31T10:51:46;3.40;;;3.20;;
21299;SDS011;10809;49.476;11.016;2023-08-31T11:02:27;2.65;;;2.45;;
21299;SDS011;10809;49.476;11.016;2023-08-31T11:07:45;2.72;;;2.63;;
21299;SDS011;10809;49.476;11.016;2023-08-31T11:10:26;3.08;;;2.85;;
21299;SDS011;10809;49.476;11.016;2023-08-31T11:12:57;2.72;;;2.63;;
21299;SDS011;10809;49.476;11.016;2023-08-31T11:15:28;2.85;;;2.63;;
21299;SDS011;10809;49.476;11.016;2023-08-31T11:18:02;3.40;;;3.10;;
21299;SDS011;10809;49.476;11.016;2023-08-31T11:20:32;3.00;;;2.80;;
21299;SDS011;10809;49.476;11.016;2023-08-31T11:23:03;2.92;;;2.78;;
21299;SDS011;10809;49.476;11.016;2023-08-31T11:25:34;3.00;;;2.90;;
21299;SDS011;10809;49.476;11.016;2023-08-31T11:28:08;3.17;;;2.92;;
21299;SDS011;10809;49.476;11.016;2023-08-31T11:30:38;3.35;;;3.08;;
21299;SDS011;10809;49.476;11.016;2023-08-31T11:33:10;3.30;;;3.10;;
21299;SDS011;10809;49.476;11.016;2023-08-31T11:35:42;3.40;;;3.13;;
21299;SDS011;10809;49.476;11.016;2023-08-31T11:38:14;2.80;;;2.70;;
21299;SDS011;10809;49.476;11.016;2023-08-31T11:40:46;3.15;;;2.85;;
21299;SDS011;10809;49.476;11.016;2023-08-31T11:43:17;3.47;;;3.28;;
21299;SDS011;10809;49.476;11.016;2023-08-31T11:45:50;2.60;;;2.50;;
21299;SDS011;10809;49.476;11.016;2023-08-31T11:48:21;3.33;;;3.13;;
21299;SDS011;10809;49.476;11.016;2023-08-31T11:50:53;2.80;;;2.70;;
21299;SDS011;10809;49.476;11.016;2023-08-31T11:53:24;2.85;;;2.60;;
21299;SDS011;10809;49.476;11.016;2023-08-31T11:55:56;2.75;;;2.60;;
21299;SDS011;10809;49.476;11.016;2023-08-31T11:58:27;2.65;;;2.55;;
21299;SDS011;10809;49.476;11.016;2023-08-31T12:00:58;2.72;;;2.63;;
21299;SDS011;10809;49.476;11.016;2023-08-31T12:03:36;2.78;;;2.58;;
21299;SDS011;10809;49.476;11.016;2023-08-31T12:06:17;2.80;;;2.63;;
21299;SDS011;10809;49.476;11.016;2023-08-31T12:08:49;3.03;;;2.72;;
21299;SDS011;10809;49.476;11.016;2023-08-31T12:11:20;3.25;;;3.05;;
21299;SDS011;10809;49.476;11.016;2023-08-31T12:13:53;2.65;;;2.42;;
21299;SDS011;10809;49.476;11.016;2023-08-31T12:16:24;3.10;;;2.72;;
21299;SDS011;10809;49.476;11.016;2023-08-31T12:18:58;3.05;;;2.92;;
21299;SDS011;10809;49.476;11.016;2023-08-31T12:21:29;2.67;;;2.50;;
21299;SDS011;10809;49.476;11.016;2023-08-31T12:24:01;2.50;;;2.40;;
21299;SDS011;10809;49.476;11.016;2023-08-31T12:26:33;2.97;;;2.78;;
21299;SDS011;10809;49.476;11.016;2023-08-31T12:29:05;3.33;;;2.53;;
21299;SDS011;10809;49.476;11.016;2023-08-31T12:31:36;3.10;;;2.90;;
21299;SDS011;10809;49.476;11.016;2023-08-31T12:34:06;2.97;;;2.88;;
21299;SDS011;10809;49.476;11.016;2023-08-31T12:36:37;3.10;;;2.88;;
21299;SDS011;10809;49.476;11.016;2023-08-31T12:39:12;2.40;;;2.30;;
21299;SDS011;10809;49.476;11.016;2023-08-31T12:41:42;2.70;;;2.65;;
21299;SDS011;10809;49.476;11.016;2023-08-31T12:44:13;2.90;;;2.80;;
21299;SDS011;10809;49.476;11.016;2023-08-31T12:46:43;3.13;;;2.97;;
21299;SDS011;10809;49.476;11.016;2023-08-31T12:49:14;2.85;;;2.75;;
21299;SDS011;10809;49.476;11.016;2023-08-31T12:51:44;2.85;;;2.75;;
21299;SDS011;10809;49.476;11.016;2023-08-31T12:54:15;2.60;;;2.40;;
21299;SDS011;10809;49.476;11.016;2023-08-31T12:56:45;2.80;;;2.60;;
21299;SDS011;10809;49.476;11.016;2023-08-31T12:59:16;2.40;;;2.30;;
21299;SDS011;10809;49.476;11.016;2023-08-31T13:01:46;3.08;;;2.60;;
21299;SDS011;10809;49.476;11.016;2023-08-31T13:04:17;2.78;;;2.67;;
21299;SDS011;10809;49.476;11.016;2023-08-31T13:06:47;2.60;;;2.50;;
21299;SDS011;10809;49.476;11.016;2023-08-31T13:09:18;2.83;;;2.63;;
21299;SDS011;10809;49.476;11.016;2023-08-31T13:11:48;2.30;;;2.20;;
21299;SDS011;10809;49.476;11.016;2023-08-31T13:14:19;2.83;;;2.60;;
21299;SDS011;10809;49.476;11.016;2023-08-31T13:16:50;2.85;;;2.65;;
21299;SDS011;10809;49.476;11.016;2023-08-31T13:19:23;2.90;;;2.80;;
21299;SDS011;10809;49.476;11.016;2023-08-31T13:21:54;2.97;;;2.88;;
21299;SDS011;10809;49.476;11.016;2023-08-31T13:24:26;2.90;;;2.70;;
21299;SDS011;10809;49.476;11.016;2023-08-31T13:26:57;2.70;;;2.55;;
21299;SDS011;10809;49.476;11.016;2023-08-31T13:29:27;2.90;;;2.80;;
21299;SDS011;10809;49.476;11.016;2023-08-31T13:31:57;3.05;;;2.95;;
21299;SDS011;10809;49.476;11.016;2023-08-31T13:34:28;2.70;;;2.60;;
21299;SDS011;10809;49.476;11.016;2023-08-31T13:36:59;3.17;;;3.08;;
21299;SDS011;10809;49.476;11.016;2023-08-31T13:39:30;2.70;;;2.53;;
21299;SDS011;10809;49.476;11.016;2023-08-31T13:42:01;3.08;;;2.92;;
21299;SDS011;10809;49.476;11.016;2023-08-31T13:44:33;2.90;;;2.75;;
21299;SDS011;10809;49.476;11.016;2023-08-31T13:47:05;2.70;;;2.60;;
21299;SDS011;10809;49.476;11.016;2023-08-31T13:49:36;3.00;;;2.72;;
21299;SDS011;10809;49.476;11.016;2023-08-31T13:52:06;2.80;;;2.70;;
21299;SDS011;10809;49.476;11.016;2023-08-31T13:54:39;2.90;;;2.80;;
21299;SDS011;10809;49.476;11.016;2023-08-31T13:57:09;2.60;;;2.53;;
21299;SDS011;10809;49.476;11.016;2023-08-31T13:59:40;4.35;;;3.20;;
21299;SDS011;10809;49.476;11.016;2023-08-31T14:02:11;2.75;;;2.65;;
21299;SDS011;10809;49.476;11.016;2023-08-31T14:04:41;2.63;;;2.53;;
21299;SDS011;10809;49.476;11.016;2023-08-31T14:07:12;3.03;;;2.70;;
21299;SDS011;10809;49.476;11.016;2023-08-31T14:09:48;2.88;;;2.78;;
21299;SDS011;10809;49.476;11.016;2023-08-31T14:12:19;3.40;;;3.00;;
21299;SDS011;10809;49.476;11.016;2023-08-31T14:14:50;3.15;;;3.05;;
21299;SDS011;10809;49.476;11.016;2023-08-31T14:17:20;2.45;;;2.35;;
21299;SDS011;10809;49.476;11.016;2023-08-31T14:19:51;3.25;;;3.05;;
21299;SDS011;10809;49.476;11.016;2023-08-31T14:22:21;2.72;;;2.63;;
21299;SDS011;10809;49.476;11.016;2023-08-31T14:24:53;2.28;;;2.17;;
21299;SDS011;10809;49.476;11.016;2023-08-31T14:27:24;2.42;;;2.33;;
21299;SDS011;10809;49.476;11.016;2023-08-31T14:29:54;2.70;;;2.50;;
21299;SDS011;10809;49.476;11.016;2023-08-31T14:32:25;2.70;;;2.50;;
21299;SDS011;10809;49.476;11.016;2023-08-31T14:34:56;2.78;;;2.58;;
21299;SDS011;10809;49.476;11.016;2023-08-31T14:37:29;2.65;;;2.55;;
21299;SDS011;10809;49.476;11.016;2023-08-31T14:40:06;2.40;;;2.03;;
21299;SDS011;10809;49.476;11.016;2023-08-31T14:42:37;2.22;;;2.08;;
21299;SDS011;10809;49.476;11.016;2023-08-31T14:45:08;2.45;;;2.35;;
21299;SDS011;10809;49.476;11.016;2023-08-31T14:47:41;2.60;;;2.40;;
21299;SDS011;10809;49.476;11.016;2023-08-31T14:50:12;2.53;;;2.42;;
21299;SDS011;10809;49.476;11.016;2023-08-31T14:52:43;2.40;;;2.30;;
21299;SDS011;10809;49.476;11.016;2023-08-31T14:55:13;7.30;;;2.80;;
21299;SDS011;10809;49.476;11.016;2023-08-31T14:57:43;2.75;;;2.55;;
21299;SDS011;10809;49.476;11.016;2023-08-31T15:00:14;2.63;;;2.53;;
21299;SDS011;10809;49.476;11.016;2023-08-31T15:02:46;2.22;;;2.13;;
21299;SDS011;10809;49.476;11.016;2023-08-31T15:05:17;2.55;;;2.40;;
21299;SDS011;10809;49.476;11.016;2023-08-31T15:07:47;2.42;;;2.33;;
21299;SDS011;10809;49.476;11.016;2023-08-31T15:10:18;2.30;;;2.20;;
21299;SDS011;10809;49.476;11.016;2023-08-31T15:12:48;2.92;;;2.40;;
21299;SDS011;10809;49.476;11.016;2023-08-31T15:15:21;2.45;;;2.35;;
21299;SDS011;10809;49.476;11.016;2023-08-31T15:17:51;2.90;;;2.70;;
21299;SDS011;10809;49.476;11.016;2023-08-31T15:20:23;3.10;;;2.90;;
21299;SDS011;10809;49.476;11.016;2023-08-31T15:22:54;2.80;;;2.65;;
21299;SDS011;10809;49.476;11.016;2023-08-31T15:25:25;2.72;;;2.63;;
21299;SDS011;10809;49.476;11.016;2023-08-31T15:27:56;2.92;;;2.78;;
21299;SDS011;10809;49.476;11.016;2023-08-31T15:30:26;3.00;;;2.80;;
21299;SDS011;10809;49.476;11.016;2023-08-31T15:33:00;2.65;;;2.55;;
21299;SDS011;10809;49.476;11.016;2023-08-31T15:35:33;3.10;;;3.00;;